Time;durP1;ratioP1;P1;durP2;ratioP2;P2;SDS_P1;SDS_P2;PMS_P1;PMS_P2;Temp;Humidity;BMP_temperature;BMP_pressure;BME280_temperature;BME280_humidity;BME280_pressure;Samples;Min_cycle;Max_cycle;Signal;HPM_P1;HPM_P2
2022/03/01 00:01:45;;;;;;;16.53;10.97;;;2.30;99.90;;;;;;5989571;24;20520;-80
2022/03/01 00:04:34;;;;;;;17.77;11.07;;;2.30;99.90;;;;;;5988756;24;20534;-79
2022/03/01 00:07:22;;;;;;;19.40;11.40;;;2.30;99.90;;;;;;5991550;24;20466;-81
2022/03/01 00:10:12;;;;;;;16.97;10.90;;;2.30;99.90;;;;;;5991537;24;20490;-81
2022/03/01 00:13:00;;;;;;;18.60;12.40;;;2.30;99.90;;;;;;5991105;24;20454;-82
2022/03/01 00:15:50;;;;;;;17.73;11.30;;;2.20;99.90;;;;;;5993166;24;20455;-83
2022/03/01 00:18:39;;;;;;;16.07;10.33;;;2.20;99.90;;;;;;5991703;24;20422;-87
2022/03/01 00:21:29;;;;;;;17.60;11.60;;;2.20;99.90;;;;;;5991718;24;20423;-83
2022/03/01 00:24:17;;;;;;;15.63;11.20;;;2.30;99.90;;;;;;5990200;24;20462;-81
2022/03/01 00:27:08;;;;;;;18.40;11.40;;;2.20;99.90;;;;;;5992307;24;20442;-84
2022/03/01 00:29:56;;;;;;;16.70;11.43;;;2.20;99.90;;;;;;6004956;24;20418;-84
2022/03/01 00:32:44;;;;;;;15.30;10.17;;;2.20;99.90;;;;;;5992369;24;20462;-85
2022/03/01 00:35:32;;;;;;;15.30;10.37;;;2.20;99.90;;;;;;5994240;24;20425;-82
2022/03/01 00:38:21;;;;;;;14.57;10.30;;;2.20;99.90;;;;;;5995312;23;20431;-81
2022/03/01 00:41:09;;;;;;;18.67;11.50;;;2.20;99.90;;;;;;5994586;24;20422;-83
2022/03/01 00:43:58;;;;;;;17.50;11.13;;;2.20;99.90;;;;;;5992859;24;20485;-81
2022/03/01 00:46:47;;;;;;;15.00;10.20;;;2.20;99.90;;;;;;5992994;24;20457;-82
2022/03/01 00:49:35;;;;;;;17.57;11.30;;;2.20;99.90;;;;;;5992402;24;20471;-82
2022/03/01 00:52:25;;;;;;;14.30;9.90;;;2.20;99.90;;;;;;5990545;24;20460;-80
2022/03/01 00:55:13;;;;;;;15.97;10.57;;;2.10;99.90;;;;;;5991756;24;20471;-82
2022/03/01 00:58:02;;;;;;;17.90;10.87;;;2.10;99.90;;;;;;5993742;24;20438;-80
2022/03/01 01:00:51;;;;;;;16.07;10.67;;;2.10;99.90;;;;;;5989842;24;20419;-79
2022/03/01 01:03:39;;;;;;;18.13;10.37;;;2.10;99.90;;;;;;5975886;24;20467;-80
2022/03/01 01:06:29;;;;;;;14.87;10.30;;;2.10;99.90;;;;;;5964597;24;20443;-83
2022/03/01 01:09:17;;;;;;;15.40;10.47;;;2.10;99.90;;;;;;5965245;24;20579;-85
2022/03/01 01:12:06;;;;;;;16.33;10.13;;;2.10;99.90;;;;;;5960874;24;20467;-83
2022/03/01 01:14:54;;;;;;;16.37;11.10;;;2.10;99.90;;;;;;5989832;24;20565;-83
2022/03/01 01:17:44;;;;;;;17.13;11.40;;;2.10;99.90;;;;;;5992604;24;20430;-84
2022/03/01 01:20:33;;;;;;;16.40;10.60;;;2.10;99.90;;;;;;5990939;24;20410;-80
2022/03/01 01:23:21;;;;;;;15.43;9.70;;;2.10;99.90;;;;;;5972435;24;20518;-82
2022/03/01 01:26:10;;;;;;;14.67;9.93;;;2.10;99.90;;;;;;5991283;24;20438;-82
2022/03/01 01:28:58;;;;;;;15.97;10.40;;;2.00;99.90;;;;;;5992851;24;20535;-81
2022/03/01 01:31:46;;;;;;;15.60;10.70;;;2.00;99.90;;;;;;5995797;24;20488;-85
2022/03/01 01:34:37;;;;;;;16.73;9.77;;;1.90;99.90;;;;;;5996568;24;20545;-85
2022/03/01 01:37:26;;;;;;;15.60;9.50;;;2.00;99.90;;;;;;5996890;24;20448;-80
2022/03/01 01:40:16;;;;;;;18.10;10.10;;;1.90;99.90;;;;;;5995384;24;20414;-83
2022/03/01 01:43:05;;;;;;;14.93;9.30;;;1.90;99.90;;;;;;5993816;24;20454;-83
2022/03/01 01:45:54;;;;;;;13.43;9.17;;;1.90;99.90;;;;;;5994164;24;20451;-82
2022/03/01 01:48:42;;;;;;;17.90;11.80;;;1.90;99.90;;;;;;5994807;24;20498;-86
2022/03/01 01:51:31;;;;;;;19.00;10.70;;;1.90;99.90;;;;;;5998868;24;20410;-82
2022/03/01 01:54:19;;;;;;;16.50;10.13;;;1.90;99.90;;;;;;5994112;24;20454;-81
2022/03/01 01:57:16;;;;;;;19.93;9.90;;;1.90;99.90;;;;;;5995350;24;20806;-81
2022/03/01 02:00:05;;;;;;;14.10;9.43;;;1.90;99.90;;;;;;5996330;24;20418;-82
2022/03/01 02:02:54;;;;;;;14.90;11.20;;;1.90;99.90;;;;;;5997129;24;20439;-80
2022/03/01 02:05:42;;;;;;;14.03;9.90;;;1.90;99.90;;;;;;5992888;24;20518;-80
2022/03/01 02:08:33;;;;;;;16.23;11.03;;;1.80;99.90;;;;;;5993060;24;20466;-83
2022/03/01 02:11:21;;;;;;;16.73;10.33;;;1.80;99.90;;;;;;5990240;24;20457;-85
2022/03/01 02:14:09;;;;;;;13.73;9.93;;;1.80;99.90;;;;;;5991661;24;20483;-81
2022/03/01 02:16:58;;;;;;;15.20;10.13;;;1.80;99.90;;;;;;6002283;24;20421;-81
2022/03/01 02:19:50;;;;;;;14.70;10.40;;;1.70;99.90;;;;;;6001554;24;20426;-80
2022/03/01 02:22:40;;;;;;;13.27;9.93;;;1.80;99.90;;;;;;5991347;24;20438;-80
2022/03/01 02:25:28;;;;;;;13.10;9.73;;;1.70;99.90;;;;;;5963532;24;20423;-80
2022/03/01 02:28:17;;;;;;;14.43;9.20;;;1.70;99.90;;;;;;5962496;24;20530;-81
2022/03/01 02:31:05;;;;;;;14.07;9.10;;;1.70;99.90;;;;;;5973220;24;20427;-81
2022/03/01 02:33:53;;;;;;;16.07;9.60;;;1.70;99.90;;;;;;5963450;24;21088;-82
2022/03/01 02:36:41;;;;;;;15.30;10.23;;;1.70;99.90;;;;;;5961199;24;20430;-84
2022/03/01 02:39:31;;;;;;;16.50;9.63;;;1.70;99.90;;;;;;5963209;24;20703;-82
2022/03/01 02:42:20;;;;;;;14.37;10.17;;;1.70;99.90;;;;;;5963309;24;20439;-83
2022/03/01 02:45:11;;;;;;;15.50;9.80;;;1.50;99.90;;;;;;5990131;24;20806;-84
2022/03/01 02:48:00;;;;;;;14.27;10.00;;;1.50;99.90;;;;;;6002044;24;20438;-84
2022/03/01 02:50:48;;;;;;;15.17;9.80;;;1.50;99.90;;;;;;5992962;24;20451;-83
2022/03/01 02:53:36;;;;;;;14.30;9.53;;;1.60;99.90;;;;;;5990833;23;20462;-82
2022/03/01 02:56:27;;;;;;;15.40;10.23;;;1.50;99.90;;;;;;5992870;24;20414;-80
2022/03/01 02:59:15;;;;;;;15.23;10.17;;;1.50;99.90;;;;;;5991620;24;20427;-87
2022/03/01 03:02:04;;;;;;;13.70;9.97;;;1.40;99.90;;;;;;6002258;24;20442;-81
2022/03/01 03:04:53;;;;;;;15.57;10.07;;;1.40;99.90;;;;;;5991522;23;20996;-80
2022/03/01 03:07:41;;;;;;;13.57;9.23;;;1.40;99.90;;;;;;5993045;24;20469;-84
2022/03/01 03:10:30;;;;;;;14.70;9.67;;;1.40;99.90;;;;;;5992945;24;20430;-80
2022/03/01 03:13:20;;;;;;;14.73;9.83;;;1.30;99.90;;;;;;5997149;23;20469;-81
2022/03/01 03:16:10;;;;;;;16.47;11.70;;;1.40;99.90;;;;;;5993588;24;20438;-83
2022/03/01 03:18:58;;;;;;;14.27;10.00;;;1.30;99.90;;;;;;5991808;24;20434;-79
2022/03/01 03:21:47;;;;;;;14.13;9.83;;;1.30;99.90;;;;;;5992425;24;20434;-83
2022/03/01 03:24:35;;;;;;;15.43;10.13;;;1.40;99.90;;;;;;5992301;23;20458;-80
2022/03/01 03:27:23;;;;;;;13.80;9.30;;;1.30;99.90;;;;;;5993540;24;20470;-85
2022/03/01 03:30:13;;;;;;;14.40;9.90;;;1.30;99.90;;;;;;5990678;24;21027;-80
2022/03/01 03:33:01;;;;;;;14.70;9.50;;;1.30;99.90;;;;;;5992548;24;20466;-82
2022/03/01 03:35:50;;;;;;;15.63;9.67;;;1.20;99.90;;;;;;5994488;24;20460;-82
2022/03/01 03:38:38;;;;;;;15.93;10.07;;;1.20;99.90;;;;;;5992930;24;20451;-82
2022/03/01 03:41:26;;;;;;;13.10;9.40;;;1.20;99.90;;;;;;5992586;24;20447;-81
2022/03/01 03:44:14;;;;;;;14.07;10.07;;;1.20;99.90;;;;;;5991498;24;20541;-81
2022/03/01 03:47:04;;;;;;;16.20;9.23;;;1.20;99.90;;;;;;5993967;24;20442;-86
2022/03/01 03:49:52;;;;;;;12.40;8.67;;;1.20;99.90;;;;;;5992303;24;20433;-81
2022/03/01 03:52:41;;;;;;;13.13;8.70;;;1.20;99.90;;;;;;5991926;24;20434;-84
2022/03/01 03:55:30;;;;;;;13.60;9.93;;;1.20;99.90;;;;;;5994929;24;20414;-85
2022/03/01 03:58:18;;;;;;;14.23;9.40;;;1.20;99.90;;;;;;5993972;24;20448;-83
2022/03/01 04:01:06;;;;;;;14.43;9.63;;;1.20;99.90;;;;;;5994297;24;20474;-82
2022/03/01 04:03:58;;;;;;;16.57;9.33;;;1.10;99.90;;;;;;5991224;24;20470;-84
2022/03/01 04:06:46;;;;;;;13.17;9.43;;;1.10;99.90;;;;;;5993399;24;20430;-83
2022/03/01 04:09:34;;;;;;;14.77;10.10;;;1.10;99.90;;;;;;5993767;24;20763;-83
2022/03/01 04:12:23;;;;;;;15.43;9.70;;;1.10;99.90;;;;;;5992724;24;20431;-82
2022/03/01 04:15:12;;;;;;;13.00;9.00;;;1.10;99.90;;;;;;5965483;24;20439;-83
2022/03/01 04:18:00;;;;;;;13.80;8.90;;;1.00;99.90;;;;;;5965260;24;20693;-83
2022/03/01 04:20:50;;;;;;;14.53;10.40;;;1.00;99.90;;;;;;5965058;24;20452;-84
2022/03/01 04:23:38;;;;;;;17.10;9.80;;;1.00;99.90;;;;;;5975549;24;20533;-81
2022/03/01 04:26:27;;;;;;;14.20;9.30;;;0.90;99.90;;;;;;5993850;24;20465;-82
2022/03/01 04:29:15;;;;;;;14.30;9.90;;;0.80;99.90;;;;;;6001605;24;20545;-82
2022/03/01 04:32:04;;;;;;;12.83;9.60;;;0.80;99.90;;;;;;5990734;24;20992;-83
2022/03/01 04:34:52;;;;;;;12.87;8.73;;;0.80;99.90;;;;;;5991172;24;20462;-81
2022/03/01 04:37:43;;;;;;;14.77;9.50;;;0.70;99.90;;;;;;5992320;24;20494;-79
2022/03/01 04:40:32;;;;;;;14.70;9.70;;;0.70;99.90;;;;;;5990654;24;20453;-83
2022/03/01 04:43:20;;;;;;;14.33;9.70;;;0.80;99.90;;;;;;5987007;24;20455;-80
2022/03/01 04:46:08;;;;;;;12.60;9.30;;;0.80;99.90;;;;;;5962168;24;20495;-80
2022/03/01 04:48:57;;;;;;;13.87;9.87;;;0.60;99.90;;;;;;5963518;24;20523;-83
2022/03/01 04:51:45;;;;;;;14.17;9.10;;;0.70;99.90;;;;;;5963047;24;20435;-79
2022/03/01 04:54:34;;;;;;;14.30;9.67;;;0.70;99.90;;;;;;5963421;24;20460;-82
2022/03/01 04:57:23;;;;;;;14.40;9.53;;;0.70;99.90;;;;;;5963354;24;20503;-84
2022/03/01 05:00:13;;;;;;;15.80;10.67;;;0.60;99.90;;;;;;5963468;24;20443;-79
2022/03/01 05:03:01;;;;;;;13.43;9.57;;;0.60;99.90;;;;;;5962860;24;20457;-79
2022/03/01 05:05:51;;;;;;;15.90;9.90;;;0.50;99.90;;;;;;5962885;24;20452;-80
2022/03/01 05:08:39;;;;;;;16.27;10.00;;;0.50;99.90;;;;;;5963686;24;20543;-79
2022/03/01 05:11:29;;;;;;;14.30;9.47;;;0.60;99.90;;;;;;5962862;24;20910;-79
2022/03/01 05:14:18;;;;;;;13.20;9.07;;;0.60;99.90;;;;;;5962344;24;20489;-83
2022/03/01 05:17:06;;;;;;;14.27;9.77;;;0.60;99.90;;;;;;5964019;24;20513;-85
2022/03/01 05:19:55;;;;;;;14.90;9.40;;;0.50;99.90;;;;;;5971271;24;20472;-83
2022/03/01 05:22:44;;;;;;;16.80;10.13;;;0.50;99.90;;;;;;5962330;24;20491;-80
2022/03/01 05:25:33;;;;;;;15.77;9.57;;;0.40;99.90;;;;;;5963586;24;20604;-80
2022/03/01 05:28:22;;;;;;;13.73;9.63;;;0.40;99.90;;;;;;5961261;24;20454;-81
2022/03/01 05:31:10;;;;;;;15.73;9.73;;;0.50;99.90;;;;;;5962650;24;20816;-83
2022/03/01 05:34:00;;;;;;;14.23;9.23;;;0.40;99.90;;;;;;5963298;24;20812;-83
2022/03/01 05:36:48;;;;;;;15.00;9.90;;;0.50;99.90;;;;;;5956144;24;20518;-84
2022/03/01 05:39:36;;;;;;;15.30;9.20;;;0.50;99.90;;;;;;5957795;24;20419;-79
2022/03/01 05:42:24;;;;;;;13.70;9.73;;;0.40;99.90;;;;;;5960009;24;20561;-79
2022/03/01 05:45:15;;;;;;;13.90;9.77;;;0.50;99.90;;;;;;5988214;24;20815;-79
2022/03/01 05:48:03;;;;;;;12.00;9.60;;;0.40;99.90;;;;;;5990318;24;20457;-80
2022/03/01 05:50:51;;;;;;;14.60;10.30;;;0.30;99.90;;;;;;5992722;23;20909;-82
2022/03/01 05:53:42;;;;;;;15.70;10.40;;;0.20;99.90;;;;;;5989856;23;20913;-83
2022/03/01 05:56:31;;;;;;;15.43;11.23;;;0.20;99.90;;;;;;5988302;24;20457;-80
2022/03/01 05:59:21;;;;;;;17.57;11.03;;;0.20;99.90;;;;;;5999613;24;20514;-82
2022/03/01 06:02:11;;;;;;;13.67;10.17;;;0.20;99.90;;;;;;5990954;24;20442;-81
2022/03/01 06:04:59;;;;;;;15.60;11.17;;;0.20;99.90;;;;;;5990367;24;20446;-80
2022/03/01 06:07:48;;;;;;;15.23;11.20;;;0.20;99.90;;;;;;5992618;23;20426;-84
2022/03/01 06:10:36;;;;;;;15.37;10.00;;;0.20;99.90;;;;;;5990112;24;20407;-82
2022/03/01 06:13:25;;;;;;;15.23;10.97;;;0.20;99.90;;;;;;5988256;23;20629;-80
2022/03/01 06:16:14;;;;;;;18.50;11.10;;;0.20;99.90;;;;;;5990567;24;20418;-81
2022/03/01 06:19:04;;;;;;;16.10;10.03;;;0.20;99.90;;;;;;5992431;24;20423;-82
2022/03/01 06:21:52;;;;;;;15.83;10.47;;;0.20;99.90;;;;;;5993744;24;20430;-82
2022/03/01 06:24:42;;;;;;;14.23;10.77;;;0.20;99.90;;;;;;5994945;23;20481;-83
2022/03/01 06:27:31;;;;;;;16.40;10.83;;;0.20;99.90;;;;;;5991924;24;20442;-81
2022/03/01 06:30:19;;;;;;;19.83;11.70;;;0.20;99.90;;;;;;5989310;24;20442;-79
2022/03/01 06:33:07;;;;;;;18.43;11.40;;;0.30;99.90;;;;;;5989374;24;20449;-80
2022/03/01 06:35:57;;;;;;;15.93;10.97;;;0.30;99.90;;;;;;5989886;24;20422;-80
2022/03/01 06:38:45;;;;;;;16.10;10.60;;;0.30;99.90;;;;;;5989915;24;20756;-80
2022/03/01 06:41:33;;;;;;;18.87;11.27;;;0.30;99.90;;;;;;5987146;24;20442;-81
2022/03/01 06:44:21;;;;;;;17.53;11.33;;;0.20;99.90;;;;;;5987261;24;20532;-80
2022/03/01 06:47:10;;;;;;;19.37;11.83;;;0.20;99.90;;;;;;5990021;24;20873;-79
2022/03/01 06:50:00;;;;;;;14.70;10.90;;;0.20;99.90;;;;;;5991750;24;20921;-79
2022/03/01 06:52:49;;;;;;;18.17;12.10;;;0.20;99.90;;;;;;5990973;24;20438;-80
2022/03/01 06:55:37;;;;;;;17.50;12.13;;;0.20;99.90;;;;;;5989632;24;20748;-84
2022/03/01 06:58:26;;;;;;;16.77;11.50;;;0.20;99.90;;;;;;5990203;24;20415;-82
2022/03/01 07:01:14;;;;;;;18.43;11.87;;;0.20;99.90;;;;;;5991012;24;20453;-81
2022/03/01 07:04:02;;;;;;;18.57;12.50;;;0.20;99.90;;;;;;5984465;24;20450;-82
2022/03/01 07:06:51;;;;;;;15.23;10.77;;;0.30;99.90;;;;;;5988269;24;20433;-80
2022/03/01 07:09:40;;;;;;;18.00;11.17;;;0.30;99.90;;;;;;5988336;24;20478;-80
2022/03/01 07:12:28;;;;;;;15.03;10.87;;;0.30;99.90;;;;;;5990851;24;20439;-80
2022/03/01 07:15:17;;;;;;;17.07;11.70;;;0.30;99.90;;;;;;5963891;24;20472;-80
2022/03/01 07:18:06;;;;;;;16.43;10.40;;;0.40;99.90;;;;;;5962691;24;20419;-82
2022/03/01 07:20:54;;;;;;;14.23;11.07;;;0.40;99.90;;;;;;5962984;24;20415;-81
2022/03/01 07:23:42;;;;;;;16.43;11.80;;;0.40;99.90;;;;;;5961644;24;20475;-82
2022/03/01 07:26:32;;;;;;;17.97;10.90;;;0.40;99.90;;;;;;5960488;24;20574;-80
2022/03/01 07:29:20;;;;;;;21.30;12.40;;;0.50;99.90;;;;;;5962036;24;20582;-79
2022/03/01 07:32:09;;;;;;;16.17;11.80;;;0.70;99.90;;;;;;5962790;24;20451;-81
2022/03/01 07:34:57;;;;;;;16.27;11.63;;;1.10;99.90;;;;;;5987284;24;20534;-80
2022/03/01 07:37:45;;;;;;;22.03;12.43;;;1.30;99.90;;;;;;5987454;24;20419;-79
2022/03/01 07:40:37;;;;;;;18.13;11.57;;;1.30;99.90;;;;;;5989315;24;20659;-79
2022/03/01 07:43:26;;;;;;;17.20;11.70;;;1.20;99.90;;;;;;5989278;24;20479;-81
2022/03/01 07:46:14;;;;;;;20.70;13.33;;;1.10;99.90;;;;;;5989537;24;20446;-82
2022/03/01 07:49:03;;;;;;;16.50;11.60;;;1.00;99.90;;;;;;5987574;24;20411;-81
2022/03/01 07:52:02;;;;;;;17.87;11.97;;;1.00;99.90;;;;;;5990485;24;20446;-82
2022/03/01 07:54:51;;;;;;;17.10;12.53;;;0.90;99.90;;;;;;5988798;24;20450;-80
2022/03/01 07:57:39;;;;;;;17.63;12.50;;;0.90;99.90;;;;;;5990958;24;20455;-83
2022/03/01 08:00:28;;;;;;;17.37;12.33;;;0.90;99.90;;;;;;5998529;24;20474;-82
2022/03/01 08:03:19;;;;;;;17.10;11.87;;;0.90;99.90;;;;;;5989994;23;20470;-80
2022/03/01 08:06:08;;;;;;;17.20;12.57;;;1.00;99.90;;;;;;5990704;24;20418;-81
2022/03/01 08:08:57;;;;;;;20.03;12.50;;;1.00;99.90;;;;;;5989717;24;20423;-83
2022/03/01 08:11:45;;;;;;;20.17;12.60;;;1.10;99.90;;;;;;5989168;24;20465;-81
2022/03/01 08:14:34;;;;;;;17.83;12.10;;;1.10;99.90;;;;;;5992340;23;20801;-79
2022/03/01 08:17:23;;;;;;;18.90;13.00;;;1.20;99.90;;;;;;5992585;24;20957;-83
2022/03/01 08:20:12;;;;;;;18.93;12.60;;;1.20;99.90;;;;;;5986903;24;20802;-82
2022/03/01 08:23:02;;;;;;;20.53;12.07;;;1.20;99.90;;;;;;5987951;24;20482;-81
2022/03/01 08:25:50;;;;;;;18.90;12.47;;;1.20;99.90;;;;;;5989866;24;20497;-82
2022/03/01 08:28:40;;;;;;;19.50;13.80;;;1.30;99.90;;;;;;5990823;23;20414;-83
2022/03/01 08:31:28;;;;;;;18.10;12.63;;;1.40;99.90;;;;;;5987980;24;20743;-79
2022/03/01 08:34:19;;;;;;;19.83;13.20;;;1.50;99.90;;;;;;5987101;24;20458;-79
2022/03/01 08:37:07;;;;;;;20.27;13.17;;;1.50;99.90;;;;;;5997657;24;20418;-79
2022/03/01 08:39:55;;;;;;;19.03;13.30;;;1.60;99.90;;;;;;5988583;24;20434;-81
2022/03/01 08:42:43;;;;;;;18.60;12.50;;;1.60;99.90;;;;;;5988000;24;20461;-79
2022/03/01 08:45:32;;;;;;;18.97;13.47;;;1.60;99.90;;;;;;5990972;24;20414;-79
2022/03/01 08:48:20;;;;;;;17.20;12.73;;;1.50;99.90;;;;;;5990110;24;20423;-83
2022/03/01 08:51:10;;;;;;;19.30;13.17;;;1.60;99.90;;;;;;5990264;24;20442;-81
2022/03/01 08:53:59;;;;;;;20.70;12.83;;;1.60;99.90;;;;;;5989666;24;20454;-81
2022/03/01 08:56:47;;;;;;;16.77;13.10;;;1.70;99.90;;;;;;5990131;24;20982;-81
2022/03/01 08:59:35;;;;;;;21.93;13.60;;;1.70;99.90;;;;;;5989797;24;20445;-80
2022/03/01 09:02:24;;;;;;;17.67;12.23;;;1.80;99.90;;;;;;5990115;24;20514;-79
2022/03/01 09:05:12;;;;;;;20.90;13.10;;;1.80;99.90;;;;;;5987010;24;20442;-81
2022/03/01 09:08:02;;;;;;;17.20;13.20;;;1.80;99.90;;;;;;5987229;24;20493;-80
2022/03/01 09:10:50;;;;;;;23.73;13.33;;;1.80;99.90;;;;;;5968645;24;20446;-80
2022/03/01 09:13:39;;;;;;;17.07;12.57;;;1.90;99.90;;;;;;5987743;24;20446;-80
2022/03/01 09:16:28;;;;;;;19.67;13.70;;;2.00;99.90;;;;;;5997318;24;20422;-82
2022/03/01 09:19:16;;;;;;;20.57;13.40;;;2.10;99.90;;;;;;5984172;24;20414;-80
2022/03/01 09:22:04;;;;;;;17.53;13.23;;;2.20;99.90;;;;;;5986512;24;20437;-79
2022/03/01 09:24:54;;;;;;;18.53;13.40;;;2.30;99.90;;;;;;5987646;24;20470;-80
2022/03/01 09:27:45;;;;;;;18.30;13.10;;;2.40;99.90;;;;;;5987019;24;20431;-80
2022/03/01 09:30:34;;;;;;;20.10;14.20;;;2.40;99.90;;;;;;5987605;24;20446;-84
2022/03/01 09:33:22;;;;;;;15.77;11.90;;;2.50;99.90;;;;;;5987971;24;20540;-85
2022/03/01 09:36:11;;;;;;;18.17;13.90;;;2.60;99.90;;;;;;5989039;24;20426;-84
2022/03/01 09:38:59;;;;;;;18.43;12.90;;;2.60;99.90;;;;;;5987508;24;20420;-79
2022/03/01 09:41:50;;;;;;;19.50;13.50;;;2.70;99.90;;;;;;5987889;24;20450;-82
2022/03/01 09:44:39;;;;;;;18.87;13.43;;;2.70;99.90;;;;;;5988257;24;20475;-82
2022/03/01 09:47:28;;;;;;;17.17;13.13;;;2.90;99.90;;;;;;5988211;24;20581;-79
2022/03/01 09:50:16;;;;;;;18.20;12.90;;;2.90;99.90;;;;;;5989820;24;20415;-82
2022/03/01 09:53:05;;;;;;;17.97;14.40;;;3.00;99.90;;;;;;5990174;24;20446;-82
2022/03/01 09:55:56;;;;;;;17.80;13.20;;;3.10;99.90;;;;;;5991775;24;20431;-81
2022/03/01 09:58:47;;;;;;;16.53;12.87;;;3.10;99.90;;;;;;5992998;24;20414;-83
2022/03/01 10:01:35;;;;;;;19.70;13.80;;;3.20;99.90;;;;;;5990998;24;20438;-83
2022/03/01 10:04:25;;;;;;;17.80;13.27;;;3.30;99.90;;;;;;5989670;24;20529;-79
2022/03/01 10:07:14;;;;;;;19.83;13.03;;;3.40;99.90;;;;;;5970795;24;20433;-82
2022/03/01 10:10:07;;;;;;;17.30;13.20;;;3.50;99.90;;;;;;5991880;24;20423;-80
2022/03/01 10:12:56;;;;;;;18.67;13.30;;;3.60;99.90;;;;;;5990536;24;20466;-82
2022/03/01 10:15:47;;;;;;;21.17;13.60;;;3.80;99.90;;;;;;5992043;24;20438;-82
2022/03/01 10:18:37;;;;;;;20.87;12.93;;;3.90;99.90;;;;;;5992698;24;20418;-82
2022/03/01 10:21:26;;;;;;;18.47;13.20;;;4.00;99.90;;;;;;5989286;24;20473;-84
2022/03/01 10:24:15;;;;;;;16.57;12.50;;;4.10;99.90;;;;;;5987375;24;20453;-81
2022/03/01 10:27:05;;;;;;;18.47;12.87;;;4.20;99.90;;;;;;5986022;24;20423;-79
2022/03/01 10:30:01;;;;;;;19.50;13.60;;;4.40;99.90;;;;;;5990382;24;20425;-82
2022/03/01 10:32:50;;;;;;;16.63;12.30;;;4.40;99.90;;;;;;5984362;24;20560;-79
2022/03/01 10:35:40;;;;;;;18.40;13.00;;;4.50;99.90;;;;;;5990079;24;20450;-79
2022/03/01 10:38:29;;;;;;;16.83;12.50;;;4.70;99.90;;;;;;5988005;24;20426;-83
2022/03/01 10:41:24;;;;;;;19.37;14.10;;;4.70;99.90;;;;;;5990108;24;20509;-81
2022/03/01 10:44:14;;;;;;;18.40;13.37;;;4.80;99.90;;;;;;5989405;24;20464;-80
2022/03/01 10:47:05;;;;;;;18.57;12.87;;;5.00;99.90;;;;;;5990853;24;20489;-81
2022/03/01 10:50:03;;;;;;;18.03;12.93;;;5.10;99.90;;;;;;5990448;24;20426;-83
2022/03/01 10:52:51;;;;;;;18.87;13.37;;;5.20;99.90;;;;;;5989666;24;20554;-82
2022/03/01 10:55:42;;;;;;;18.43;13.50;;;5.30;99.90;;;;;;5989595;24;20957;-80
2022/03/01 10:58:32;;;;;;;20.00;13.83;;;5.40;99.90;;;;;;5999905;24;20509;-83
2022/03/01 11:01:23;;;;;;;18.63;12.63;;;5.50;99.90;;;;;;5985522;24;20981;-83
2022/03/01 11:04:12;;;;;;;16.20;13.10;;;5.60;99.90;;;;;;5986042;24;20467;-80
2022/03/01 11:07:04;;;;;;;19.13;13.60;;;5.60;99.90;;;;;;5986899;24;20419;-81
2022/03/01 11:09:53;;;;;;;16.63;12.03;;;5.90;99.90;;;;;;5984535;24;20446;-80
2022/03/01 11:12:44;;;;;;;18.80;13.57;;;6.00;99.90;;;;;;5983377;24;20565;-81
2022/03/01 11:15:57;;;;;;;15.97;13.00;;;6.20;99.90;;;;;;5993987;24;20497;-83
2022/03/01 11:19:17;;;;;;;16.17;12.50;;;6.40;99.90;;;;;;5996840;24;20418;-87
2022/03/01 11:22:31;;;;;;;19.10;12.40;;;6.40;99.90;;;;;;5998060;23;20442;-86
2022/03/01 11:25:24;;;;;;;16.70;12.07;;;6.50;99.90;;;;;;5993046;24;20553;-83
2022/03/01 11:31:44;;;;;;;18.33;13.70;;;7.30;99.90;;;;;;5992083;24;20454;-83
2022/03/01 11:34:34;;;;;;;16.70;13.30;;;7.80;99.90;;;;;;5989441;24;20458;-80
2022/03/01 11:37:24;;;;;;;29.73;20.43;;;8.20;99.90;;;;;;5994276;24;20431;-81
2022/03/01 11:40:22;;;;;;;22.70;16.53;;;8.60;99.90;;;;;;5993873;24;20884;-79
2022/03/01 11:43:13;;;;;;;14.80;13.20;;;9.00;99.90;;;;;;5986829;24;20482;-87
2022/03/01 11:46:01;;;;;;;16.50;14.07;;;9.20;99.90;;;;;;5983399;24;20421;-82
2022/03/01 11:48:55;;;;;;;15.90;12.23;;;9.30;99.90;;;;;;5990954;24;21190;-84
2022/03/01 11:51:47;;;;;;;16.60;12.33;;;9.40;99.90;;;;;;5987726;24;20495;-85
2022/03/01 11:54:37;;;;;;;14.73;13.00;;;9.50;99.90;;;;;;5988912;24;20466;-85
2022/03/01 11:57:29;;;;;;;15.50;12.80;;;9.50;99.90;;;;;;5988881;24;20644;-85
2022/03/01 12:00:29;;;;;;;16.20;12.63;;;9.50;99.90;;;;;;6001351;24;20506;-84
2022/03/01 12:03:26;;;;;;;16.20;12.97;;;9.50;99.90;;;;;;5975187;24;20474;-86
2022/03/01 12:06:20;;;;;;;17.43;13.30;;;9.50;99.90;;;;;;5984555;24;20485;-84
2022/03/01 12:09:10;;;;;;;15.83;13.20;;;9.60;99.90;;;;;;5988539;24;20427;-86
2022/03/01 12:12:08;;;;;;;14.20;12.70;;;9.60;99.90;;;;;;5989873;24;20446;-85
2022/03/01 12:14:57;;;;;;;19.27;13.83;;;9.60;99.90;;;;;;5985703;24;20461;-84
2022/03/01 12:17:48;;;;;;;16.67;13.40;;;9.60;99.90;;;;;;5986062;24;20418;-83
2022/03/01 12:20:41;;;;;;;16.63;13.93;;;9.50;99.90;;;;;;5989530;24;20422;-83
2022/03/01 12:23:31;;;;;;;15.67;13.70;;;9.20;99.90;;;;;;5993938;24;20470;-84
2022/03/01 12:26:19;;;;;;;18.23;12.93;;;9.10;99.90;;;;;;5984288;24;20422;-83
2022/03/01 12:29:11;;;;;;;17.40;12.83;;;8.90;99.90;;;;;;5985991;24;20475;-84
2022/03/01 12:32:02;;;;;;;16.10;13.33;;;8.80;99.90;;;;;;5994639;24;20968;-85
2022/03/01 12:34:58;;;;;;;16.60;12.50;;;8.70;99.90;;;;;;5986235;24;20502;-80
2022/03/01 12:37:50;;;;;;;17.77;13.10;;;8.60;99.90;;;;;;5987906;24;20442;-85
2022/03/01 12:40:44;;;;;;;16.17;13.67;;;8.50;99.90;;;;;;6000222;24;20418;-84
2022/03/01 12:43:32;;;;;;;20.40;14.53;;;8.40;99.90;;;;;;5989746;24;20952;-84
2022/03/01 12:46:22;;;;;;;20.33;14.13;;;8.20;99.90;;;;;;5991536;24;20449;-81
2022/03/01 12:49:34;;;;;;;16.97;12.83;;;8.10;99.90;;;;;;5999713;24;20422;-85
2022/03/01 12:52:23;;;;;;;18.70;13.17;;;8.00;99.90;;;;;;5988771;24;20847;-85
2022/03/01 12:55:14;;;;;;;15.53;12.80;;;8.00;99.90;;;;;;5993948;24;20494;-86
2022/03/01 12:58:18;;;;;;;14.73;12.23;;;8.00;99.90;;;;;;5993194;24;20490;-86
2022/03/01 13:01:14;;;;;;;16.83;12.87;;;8.00;99.90;;;;;;6000496;24;20430;-85
2022/03/01 13:04:07;;;;;;;17.40;13.40;;;7.80;99.90;;;;;;5994693;23;20446;-86
2022/03/01 13:06:56;;;;;;;17.80;14.10;;;7.70;99.90;;;;;;5995137;24;20482;-84
2022/03/01 13:09:44;;;;;;;17.33;13.57;;;7.70;99.90;;;;;;5993908;24;20494;-89
2022/03/01 13:12:34;;;;;;;17.00;13.07;;;7.70;99.90;;;;;;6001082;24;20450;-84
2022/03/01 13:15:23;;;;;;;18.07;14.70;;;7.80;99.90;;;;;;5989621;24;20438;-83
2022/03/01 13:18:11;;;;;;;16.67;12.90;;;7.80;99.90;;;;;;5994309;24;20490;-84
2022/03/01 13:21:09;;;;;;;15.20;12.63;;;7.70;99.90;;;;;;5992610;24;20430;-85
2022/03/01 13:24:03;;;;;;;15.70;12.43;;;7.70;99.90;;;;;;5992267;23;20537;-83
2022/03/01 13:26:53;;;;;;;17.03;13.43;;;7.70;99.90;;;;;;5995446;24;20679;-86
2022/03/01 13:29:53;;;;;;;14.20;12.00;;;7.70;99.90;;;;;;5994281;24;20410;-84
2022/03/01 13:32:42;;;;;;;18.33;13.50;;;7.70;99.90;;;;;;5990713;24;20586;-85
2022/03/01 13:35:31;;;;;;;16.57;13.47;;;7.70;99.90;;;;;;5996677;24;20414;-85
2022/03/01 13:38:22;;;;;;;17.07;13.30;;;7.70;99.90;;;;;;6000767;24;20422;-84
2022/03/01 13:41:25;;;;;;;18.30;13.13;;;7.80;99.90;;;;;;5995868;24;20413;-86
2022/03/01 13:44:17;;;;;;;17.57;13.20;;;7.80;99.90;;;;;;5994593;24;20998;-85
2022/03/01 13:47:13;;;;;;;18.07;13.73;;;7.80;99.90;;;;;;5996048;24;20481;-85
2022/03/01 13:50:10;;;;;;;15.67;13.07;;;7.90;99.90;;;;;;5997648;24;20490;-84
2022/03/01 13:53:01;;;;;;;18.30;13.10;;;7.90;99.90;;;;;;5994506;24;20510;-85
2022/03/01 13:55:54;;;;;;;16.80;13.57;;;7.90;99.90;;;;;;5991801;24;20446;-85
2022/03/01 13:58:51;;;;;;;16.70;14.40;;;8.00;99.90;;;;;;6005688;24;20422;-85
2022/03/01 14:02:00;;;;;;;19.50;13.30;;;8.00;99.90;;;;;;5995399;24;20461;-82
2022/03/01 14:04:59;;;;;;;18.50;13.00;;;8.10;99.90;;;;;;5993422;24;20532;-82
2022/03/01 14:07:57;;;;;;;17.00;13.40;;;8.30;99.90;;;;;;5996538;23;20418;-83
2022/03/01 14:10:52;;;;;;;15.83;12.97;;;8.40;99.90;;;;;;5994571;24;20422;-84
2022/03/01 14:13:42;;;;;;;16.63;12.73;;;8.50;99.90;;;;;;5993275;24;20546;-84
2022/03/01 14:16:34;;;;;;;15.30;12.50;;;8.50;99.90;;;;;;5997303;24;20425;-86
2022/03/01 14:19:29;;;;;;;16.87;13.40;;;8.60;99.90;;;;;;5991371;24;20431;-83
2022/03/01 14:22:23;;;;;;;17.10;13.50;;;8.50;99.90;;;;;;5993610;24;20442;-85
2022/03/01 14:25:12;;;;;;;17.43;14.23;;;8.50;99.90;;;;;;5965269;24;20591;-84
2022/03/01 14:28:04;;;;;;;15.03;13.33;;;8.60;99.90;;;;;;5966536;24;20477;-84
2022/03/01 14:30:57;;;;;;;16.00;13.27;;;8.60;99.90;;;;;;5966881;24;20883;-86
2022/03/01 14:33:45;;;;;;;18.13;13.50;;;8.60;99.90;;;;;;5978558;24;20703;-85
2022/03/01 14:36:37;;;;;;;19.23;13.83;;;8.60;99.90;;;;;;5995848;24;20414;-85
2022/03/01 14:39:28;;;;;;;15.77;13.07;;;8.50;99.90;;;;;;5992839;24;20637;-85